Airfield :
LOGIN :

Register | Disclaimer

   EN    FR    IT 

 










Legend :    VFR   Marginal VFR   IFR   Intensive IFR   Very Intensive IFR
Visi :
Ceiling :
>= 8 km
>= 3000ft
5 to 8 km
1000 to 3000 ft
1500m to 5 km
500 to 1000 ft
800 to 1500m
200 to 500 ft
< 800m
< 200 ft
Symbols :   Thunderstorms  Fog  Heavy snow  Heavy precipitations  Wind > 20 kt
SIGMETs :     Misc.  Thunderstorms  Icing  Turbulence  Mountain Waves  Volcanic Ashes






- Airport Elevation : 278 ft
- IATA code : RJK


LDRI - Rijeka

CURRENT METAR :
  • 182030Z VRB02KT 9999 SCT040 17/11 Q1012

EXPIRED METARs :
  • 182000Z 00000KT 9999 SCT040 16/10 Q1012
  • 181930Z 35002KT 9999 FEW040 16/11 Q1012
  • 181900Z 02004KT 9999 FEW040 17/11 Q1012
  • 181830Z 00000KT 9999 FEW040 16/12 Q1012
  • 181800Z 33004KT 9999 FEW040 17/12 Q1012

TAF TAF LDRI
Valid from the 18 at 18:00 until the 19 at 18:00 UTC


181725Z 1818/1918 VRB02KT 9999 SCT040 TX18/1818Z TN11/1904Z
PROB30
TEMPO 1901/1907 SHRA FEW020TCU BKN030
BECMG 1909/1911 06012KT
PROB30
TEMPO 1912/1915 RA
BECMG 1913/1915 32005KT



MET'MAP, your aeronautical weather chart ! - Copyright ORBIFLY December 2007 - Disclaimer

ORBIFLY MET'MAP TEAM :

Programming & Development : Alexandra Zaïnal
Concept & original design : Baudouin d'Aumeries
Assistance for programming : Marc-Olivier Méhu
Technical & hardware support : Manuel Goepfert

Contact : metmap@orbifly.com




SOURCES & CREDITS :

   NOAA